Terminal Aerodrome Forecast
Issued by NWS

Home | Current Version | Previous Version | Text Only | Print | Product List | Glossary On
Versions: 1 2 3 4 5 6 7 8 9 10 11 12 13 14 15
607
FTUS43 KMQT 192334
TAFCMX
TAF
KCMX 192334Z 2000/2024 10008KT P6SM BKN200
     FM200700 12010KT P6SM BKN200
     FM201300 13012KT P6SM BKN200 WS010/17035KT
     FM201800 14014G21KT P6SM BKN070 WS010/17045KT
     FM202200 14014G23KT 3SM -SHRA OVC030 WS010/17040KT
     FM202300 14013G24KT 4SM -SHRA OVC025=

USA.gov is the U.S. government's official web portal to all federal, state and local government web resources and services.